createdAt,value
2017-09-24T00:00:40.102Z,0
2017-09-24T00:01:39.796Z,0
2017-09-24T00:02:54.409Z,0
2017-09-24T00:03:39.896Z,0
2017-09-24T00:04:39.544Z,0
2017-09-24T00:05:39.888Z,0
2017-09-24T00:06:39.905Z,0
2017-09-24T00:07:39.933Z,0
2017-09-24T00:08:54.544Z,0
2017-09-24T00:09:40.293Z,0
2017-09-24T00:10:39.681Z,0
2017-09-24T00:11:40.020Z,0
2017-09-24T00:12:40.356Z,0
2017-09-24T00:13:40.065Z,0
2017-09-24T00:14:40.079Z,0
2017-09-24T00:15:39.791Z,0
2017-09-24T00:16:40.447Z,0
2017-09-24T00:18:55.087Z,0
2017-09-24T00:19:40.511Z,0
2017-09-24T00:20:54.806Z,0
2017-09-24T00:21:55.146Z,0
2017-09-24T00:22:55.167Z,0
2017-09-24T00:23:55.189Z,0
2017-09-24T00:24:40.621Z,0
2017-09-24T00:25:40.331Z,0
2017-09-24T00:26:40.023Z,0
2017-09-24T00:27:40.693Z,0
2017-09-24T00:28:40.388Z,0
2017-09-24T00:29:40.728Z,0
2017-09-24T00:30:55.347Z,0
2017-09-24T00:31:40.450Z,0
2017-09-24T00:32:40.791Z,0
2017-09-24T00:33:40.819Z,0
2017-09-24T00:34:55.108Z,0
2017-09-24T00:35:40.864Z,0
2017-09-24T00:36:40.876Z,0
2017-09-24T00:37:40.908Z,0
2017-09-24T00:38:40.919Z,0
2017-09-24T00:39:40.942Z,0
2017-09-24T00:40:40.664Z,0
2017-09-24T00:41:40.993Z,0
2017-09-24T00:42:40.373Z,0
2017-09-24T00:43:41.035Z,0
2017-09-24T00:44:41.050Z,0
2017-09-24T00:45:40.116Z,0
2017-09-24T00:46:40.784Z,0
2017-09-24T00:47:55.717Z,0
2017-09-24T00:48:40.818Z,0
2017-09-24T00:49:41.159Z,0
2017-09-24T00:50:55.827Z,0
2017-09-24T00:51:40.892Z,0
2017-09-24T00:52:55.819Z,0
2017-09-24T00:53:41.247Z,0
2017-09-24T00:54:41.273Z,0
2017-09-24T00:56:55.588Z,0
2017-09-24T00:57:41.339Z,0
2017-09-24T00:58:41.041Z,0
2017-09-24T00:59:41.374Z,0
2017-09-24T01:00:41.407Z,0
2017-09-24T01:01:41.420Z,0
2017-09-24T01:02:41.443Z,0
2017-09-24T01:03:41.139Z,0
2017-09-24T01:04:41.484Z,0
2017-09-24T01:05:55.780Z,0
2017-09-24T01:06:41.244Z,0
2017-09-24T01:07:41.559Z,0
2017-09-24T01:08:41.266Z,0
2017-09-24T01:09:55.867Z,0
2017-09-24T01:10:55.888Z,0
2017-09-24T01:11:41.330Z,0
2017-09-24T01:12:41.663Z,0
2017-09-24T01:13:41.369Z,0
2017-09-24T01:14:56.303Z,0
2017-09-24T01:15:41.410Z,0
2017-09-24T01:16:41.744Z,0
2017-09-24T01:17:41.766Z,0
2017-09-24T01:18:41.789Z,0
2017-09-24T01:20:40.884Z,0
2017-09-24T01:21:56.448Z,0
2017-09-24T01:23:41.585Z,0
2017-09-24T01:24:41.604Z,0
2017-09-24T01:25:56.532Z,0
2017-09-24T01:26:41.645Z,0
2017-09-24T01:27:41.672Z,0
2017-09-24T01:28:56.278Z,0
2017-09-24T01:29:41.071Z,0
2017-09-24T01:31:41.755Z,0
2017-09-24T01:32:42.093Z,0
2017-09-24T01:33:42.126Z,0
2017-09-24T01:34:41.818Z,0
2017-09-24T01:35:41.841Z,0
2017-09-24T01:36:41.543Z,0
2017-09-24T01:37:56.799Z,0
2017-09-24T01:38:42.233Z,0
2017-09-24T01:39:42.250Z,0
2017-09-24T01:40:41.948Z,0
2017-09-24T01:41:42.288Z,0
2017-09-24T01:42:41.995Z,0
2017-09-24T01:43:42.014Z,0
2017-09-24T01:44:56.624Z,0
2017-09-24T01:45:42.376Z,0
2017-09-24T01:46:42.083Z,0
2017-09-24T01:47:42.420Z,0
2017-09-24T01:48:42.441Z,0
2017-09-24T01:49:41.838Z,0
2017-09-24T01:50:57.082Z,0
2017-09-24T01:51:42.189Z,0
2017-09-24T01:52:42.528Z,0
2017-09-24T01:53:57.144Z,0
2017-09-24T01:54:41.938Z,0
2017-09-24T01:55:42.312Z,0
2017-09-24T01:56:42.616Z,0
2017-09-24T01:57:42.321Z,0
2017-09-24T01:58:42.657Z,0
2017-09-24T01:59:56.633Z,0
2017-09-24T02:00:57.296Z,0
2017-09-24T02:01:42.407Z,0
2017-09-24T02:03:42.820Z,0
2017-09-24T02:04:42.472Z,0
2017-09-24T02:06:42.520Z,0
2017-09-24T02:07:42.858Z,0
2017-09-24T02:08:42.876Z,0
2017-09-24T02:09:57.173Z,0
2017-09-24T02:10:57.516Z,0
2017-09-24T02:11:57.220Z,0
2017-09-24T02:12:42.334Z,0
2017-09-24T02:14:57.601Z,0
2017-09-24T02:15:43.032Z,0
2017-09-24T02:16:42.420Z,0
2017-09-24T02:17:57.672Z,0
2017-09-24T02:18:42.776Z,0
2017-09-24T02:19:43.116Z,0
2017-09-24T02:20:43.148Z,0
2017-09-24T02:21:42.528Z,0
2017-09-24T02:22:42.869Z,0
2017-09-24T02:23:42.895Z,0
2017-09-24T02:24:42.922Z,0
2017-09-24T02:25:57.530Z,0
2017-09-24T02:26:42.952Z,0
2017-09-24T02:27:42.981Z,0
2017-09-24T02:28:42.681Z,0
2017-09-24T02:30:42.726Z,0
2017-09-24T02:32:43.089Z,0
2017-09-24T02:33:43.115Z,0
2017-09-24T02:34:42.810Z,0
2017-09-24T02:36:43.492Z,0
2017-09-24T02:37:43.509Z,0
2017-09-24T02:39:43.557Z,0
2017-09-24T02:40:58.182Z,0
2017-09-24T02:41:58.197Z,0
2017-09-24T02:42:43.622Z,0
2017-09-24T02:43:58.234Z,0
2017-09-24T02:44:43.727Z,0
2017-09-24T02:45:43.373Z,0
2017-09-24T02:46:43.410Z,0
2017-09-24T02:47:58.328Z,0
2017-09-24T02:48:43.439Z,0
2017-09-24T02:49:43.781Z,0
2017-09-24T02:50:43.808Z,0
2017-09-24T02:51:43.502Z,0
2017-09-24T02:52:43.850Z,0
2017-09-24T02:53:43.549Z,0
2017-09-24T02:54:43.896Z,0
2017-09-24T02:55:43.912Z,0
2017-09-24T02:56:43.926Z,0
2017-09-24T02:57:58.552Z,0
2017-09-24T02:58:44.021Z,0
2017-09-24T02:59:58.269Z,0
2017-09-24T03:00:43.695Z,0
2017-09-24T03:01:43.720Z,0
2017-09-24T03:02:43.753Z,0
2017-09-24T03:03:43.766Z,0
2017-09-24T03:04:58.697Z,0
2017-09-24T03:05:43.810Z,0
2017-09-24T03:06:44.209Z,0
2017-09-24T03:08:43.873Z,0
2017-09-24T03:09:43.899Z,0
2017-09-24T03:10:43.917Z,0
2017-09-24T03:11:43.938Z,0
2017-09-24T03:12:58.910Z,0
2017-09-24T03:14:44.006Z,0
2017-09-24T03:15:58.946Z,0
2017-09-24T03:16:58.964Z,0
2017-09-24T03:17:44.075Z,0
2017-09-24T03:18:44.098Z,0
2017-09-24T03:19:44.483Z,0
2017-09-24T03:21:44.482Z,0
2017-09-24T03:22:44.505Z,0
2017-09-24T03:23:44.526Z,0
2017-09-24T03:24:43.909Z,0
2017-09-24T03:25:44.249Z,0
2017-09-24T03:28:59.223Z,0
2017-09-24T03:29:44.340Z,0
2017-09-24T03:30:44.687Z,0
2017-09-24T03:31:59.294Z,0
2017-09-24T03:32:44.724Z,0
2017-09-24T03:33:58.697Z,0
2017-09-24T03:34:44.441Z,0
2017-09-24T03:35:44.787Z,0
2017-09-24T03:36:44.491Z,0
2017-09-24T03:37:44.511Z,0
2017-09-24T03:40:44.581Z,0
2017-09-24T03:42:44.940Z,0
2017-09-24T03:43:44.645Z,0
2017-09-24T03:44:59.266Z,0
2017-09-24T03:45:44.690Z,0
2017-09-24T03:46:44.707Z,0
2017-09-24T03:47:44.735Z,0
2017-09-24T03:48:59.667Z,0
2017-09-24T03:49:44.772Z,0
2017-09-24T03:50:45.118Z,0
2017-09-24T03:52:44.842Z,0
2017-09-24T03:54:44.571Z,0
2017-09-24T03:55:44.588Z,0
2017-09-24T03:56:45.263Z,0
2017-09-24T03:57:44.948Z,0
2017-09-24T03:58:44.975Z,0
2017-09-24T03:59:44.675Z,0
2017-09-24T04:00:59.293Z,0
2017-09-24T04:01:59.314Z,0
2017-09-24T04:02:59.655Z,0
2017-09-24T04:03:45.087Z,0
2017-09-24T04:04:44.788Z,0
2017-09-24T04:05:45.133Z,0
2017-09-24T04:07:44.854Z,0
2017-09-24T04:08:45.512Z,0
2017-09-24T04:09:45.535Z,0
2017-09-24T04:10:45.558Z,0
2017-09-24T04:11:44.941Z,0
2017-09-24T04:12:45.601Z,0
2017-09-24T04:14:45.330Z,0
2017-09-24T04:16:00.262Z,0
2017-09-24T04:17:45.394Z,0
2017-09-24T04:18:45.728Z,0
2017-09-24T04:19:45.442Z,0
2017-09-24T04:21:00.374Z,0
2017-09-24T04:22:00.392Z,0
2017-09-24T04:22:45.511Z,0
2017-09-24T04:23:45.848Z,0
2017-09-24T04:24:45.862Z,0
2017-09-24T04:25:45.575Z,0
2017-09-24T04:26:45.590Z,0
2017-09-24T04:27:45.940Z,0
2017-09-24T04:28:45.952Z,0
2017-09-24T04:29:45.983Z,0
2017-09-24T04:30:46.004Z,0
2017-09-24T04:31:46.022Z,0
2017-09-24T04:32:45.722Z,0
2017-09-24T04:33:45.799Z,0
2017-09-24T04:34:45.772Z,0
2017-09-24T04:35:45.475Z,0
2017-09-24T04:36:45.820Z,0
2017-09-24T04:38:00.426Z,0
2017-09-24T04:39:00.769Z,0
2017-09-24T04:39:45.878Z,0
2017-09-24T04:40:46.217Z,0
2017-09-24T04:41:46.240Z,0
2017-09-24T04:42:45.946Z,0
2017-09-24T04:43:46.284Z,0
2017-09-24T04:44:46.312Z,0
2017-09-24T04:45:46.016Z,0
2017-09-24T04:46:46.350Z,0
2017-09-24T04:48:00.969Z,0
2017-09-24T04:48:46.078Z,0
2017-09-24T04:50:00.694Z,0
2017-09-24T04:51:01.035Z,0
2017-09-24T04:52:01.090Z,0
2017-09-24T04:52:46.493Z,0
2017-09-24T04:53:46.506Z,0
2017-09-24T04:54:46.210Z,0
2017-09-24T04:55:46.236Z,0
2017-09-24T04:56:46.251Z,0
2017-09-24T04:57:45.958Z,0
2017-09-24T04:58:45.979Z,0
2017-09-24T05:00:46.662Z,0
2017-09-24T05:02:46.384Z,0
2017-09-24T05:04:01.000Z,0
2017-09-24T05:05:46.457Z,0
2017-09-24T05:07:01.384Z,0
2017-09-24T05:07:46.500Z,0
2017-09-24T05:08:45.880Z,0
2017-09-24T05:09:46.545Z,0
2017-09-24T05:11:01.470Z,0
2017-09-24T05:11:46.589Z,0
2017-09-24T05:12:46.959Z,0
2017-09-24T05:13:46.953Z,0
2017-09-24T05:15:01.560Z,0
2017-09-24T05:15:46.681Z,0
2017-09-24T05:16:47.010Z,0
2017-09-24T05:17:46.750Z,0
2017-09-24T05:18:46.423Z,0
2017-09-24T05:20:01.351Z,0
2017-09-24T05:21:01.381Z,0
2017-09-24T05:22:01.400Z,0
2017-09-24T05:22:47.163Z,0
2017-09-24T05:23:46.854Z,0
2017-09-24T05:26:01.803Z,0
2017-09-24T05:26:47.242Z,0
2017-09-24T05:27:46.936Z,0
2017-09-24T05:28:46.961Z,0
2017-09-24T05:29:46.354Z,0
2017-09-24T05:30:47.324Z,0
2017-09-24T05:31:47.347Z,0
2017-09-24T05:32:47.050Z,0
2017-09-24T05:33:46.754Z,0
2017-09-24T05:34:47.097Z,0
2017-09-24T05:36:02.024Z,0
2017-09-24T05:36:46.503Z,0
2017-09-24T05:38:02.070Z,0
2017-09-24T05:38:46.867Z,0
2017-09-24T05:39:47.213Z,0
2017-09-24T05:41:01.502Z,0
2017-09-24T05:41:47.282Z,0
2017-09-24T05:42:47.271Z,0
2017-09-24T05:43:47.615Z,0
2017-09-24T05:44:47.640Z,0
2017-09-24T05:45:47.340Z,5
2017-09-24T05:46:47.369Z,5
2017-09-24T05:47:47.709Z,5
2017-09-24T05:48:47.087Z,5
2017-09-24T05:49:47.746Z,5
2017-09-24T05:51:02.360Z,5
2017-09-24T05:51:47.789Z,5
2017-09-24T05:53:02.084Z,5
2017-09-24T05:53:47.838Z,5
2017-09-24T05:55:02.447Z,10
2017-09-24T05:55:47.244Z,10
2017-09-24T05:56:46.946Z,10
2017-09-24T05:57:47.921Z,10
2017-09-24T05:58:47.312Z,10
2017-09-24T05:59:47.650Z,10
2017-09-24T06:00:47.360Z,10
2017-09-24T06:01:48.004Z,10
2017-09-24T06:02:48.033Z,10
2017-09-24T06:03:48.105Z,10
2017-09-24T06:04:48.074Z,10
2017-09-24T06:07:02.717Z,10
2017-09-24T06:07:47.831Z,10
2017-09-24T06:08:48.166Z,10
2017-09-24T06:09:48.191Z,10
2017-09-24T06:10:48.219Z,10
2017-09-24T06:11:48.237Z,10
2017-09-24T06:13:02.527Z,15
2017-09-24T06:13:47.962Z,10
2017-09-24T06:14:48.303Z,10
2017-09-24T06:15:48.005Z,10
2017-09-24T06:16:48.026Z,10
2017-09-24T06:18:48.389Z,10
2017-09-24T06:19:48.414Z,10
2017-09-24T06:21:48.136Z,10
2017-09-24T06:23:02.434Z,10
2017-09-24T06:23:48.197Z,10
2017-09-24T06:25:48.225Z,5
2017-09-24T06:27:03.165Z,5
2017-09-24T06:29:03.204Z,5
2017-09-24T06:29:48.317Z,5
2017-09-24T06:31:03.250Z,5
2017-09-24T06:31:48.364Z,5
2017-09-24T06:32:48.704Z,5
2017-09-24T06:33:48.729Z,5
2017-09-24T06:34:48.106Z,10
2017-09-24T06:35:48.768Z,10
2017-09-24T06:36:48.487Z,10
2017-09-24T06:37:48.815Z,5
2017-09-24T06:39:03.108Z,5
2017-09-24T06:39:48.236Z,5
2017-09-24T06:40:48.890Z,5
2017-09-24T06:42:02.856Z,5
2017-09-24T06:42:48.288Z,10
2017-09-24T06:43:48.952Z,10
2017-09-24T06:44:48.984Z,10
2017-09-24T06:46:49.023Z,10
2017-09-24T06:47:48.717Z,10
2017-09-24T06:48:48.424Z,5
2017-09-24T06:49:49.079Z,5
2017-09-24T06:50:49.106Z,5
2017-09-24T06:51:49.126Z,5
2017-09-24T06:52:48.837Z,10
2017-09-24T06:55:48.902Z,5
2017-09-24T06:57:03.837Z,10
2017-09-24T06:57:49.264Z,10
2017-09-24T06:58:48.977Z,10
2017-09-24T07:00:03.900Z,10
2017-09-24T07:01:03.605Z,5
2017-09-24T07:01:49.364Z,5
2017-09-24T07:03:03.967Z,10
2017-09-24T07:03:49.401Z,10
2017-09-24T07:04:49.423Z,10
2017-09-24T07:05:49.123Z,10
2017-09-24T07:06:49.468Z,10
2017-09-24T07:07:49.544Z,10
2017-09-24T07:08:49.511Z,10
2017-09-24T07:09:49.220Z,10
2017-09-24T07:11:03.828Z,10
2017-09-24T07:12:03.852Z,10
2017-09-24T07:13:04.196Z,5
2017-09-24T07:13:49.308Z,5
2017-09-24T07:14:49.328Z,5
2017-09-24T07:15:49.666Z,5
2017-09-24T07:16:49.057Z,5
2017-09-24T07:17:49.725Z,5
2017-09-24T07:18:49.417Z,5
2017-09-24T07:19:49.813Z,5
2017-09-24T07:20:49.785Z,5
2017-09-24T07:21:49.838Z,5
2017-09-24T07:22:49.831Z,5
2017-09-24T07:23:49.847Z,5
2017-09-24T07:24:49.873Z,10
2017-09-24T07:26:04.494Z,10
2017-09-24T07:26:49.913Z,10
2017-09-24T07:27:49.939Z,10
2017-09-24T07:29:04.551Z,10
2017-09-24T07:31:04.594Z,10
2017-09-24T07:32:49.732Z,5
2017-09-24T07:33:49.753Z,5
2017-09-24T07:34:49.779Z,5
2017-09-24T07:35:50.118Z,5
2017-09-24T07:37:50.163Z,5
2017-09-24T07:38:49.865Z,5
2017-09-24T07:39:49.884Z,10
2017-09-24T07:40:49.908Z,10
2017-09-24T07:41:49.942Z,10
2017-09-24T07:43:03.909Z,10
2017-09-24T07:44:04.571Z,10
2017-09-24T07:45:04.595Z,10
2017-09-24T07:45:50.045Z,10
2017-09-24T07:47:04.959Z,10
2017-09-24T07:47:50.387Z,10
2017-09-24T07:48:50.094Z,10
2017-09-24T07:49:49.490Z,10
2017-09-24T07:50:50.456Z,15
2017-09-24T07:51:50.154Z,15
2017-09-24T07:52:49.546Z,15
2017-09-24T07:53:50.522Z,15
2017-09-24T07:54:49.589Z,20
2017-09-24T07:55:50.252Z,20
2017-09-24T07:57:05.234Z,20
2017-09-24T07:58:05.205Z,20
2017-09-24T07:58:50.315Z,20
2017-09-24T07:59:50.344Z,25
2017-09-24T08:00:50.358Z,25
2017-09-24T08:01:50.698Z,25
2017-09-24T08:02:50.403Z,25
2017-09-24T08:03:50.746Z,25
2017-09-24T08:04:50.130Z,25
2017-09-24T08:05:50.802Z,25
2017-09-24T08:06:50.816Z,25
2017-09-24T08:07:50.844Z,30
2017-09-24T08:09:50.878Z,25
2017-09-24T08:10:50.904Z,25
2017-09-24T08:11:50.613Z,25
2017-09-24T08:12:50.947Z,25
2017-09-24T08:14:05.560Z,25
2017-09-24T08:15:05.267Z,20
2017-09-24T08:15:51.011Z,20
2017-09-24T08:17:05.312Z,20
2017-09-24T08:17:50.423Z,20
2017-09-24T08:18:50.763Z,20
2017-09-24T08:19:51.156Z,25
2017-09-24T08:20:50.813Z,20
2017-09-24T08:21:50.832Z,20
2017-09-24T08:22:50.852Z,25
2017-09-24T08:23:50.560Z,30
2017-09-24T08:24:51.235Z,30
2017-09-24T08:25:51.267Z,35
2017-09-24T08:26:51.264Z,35
2017-09-24T08:28:05.882Z,35
2017-09-24T08:28:50.689Z,40
2017-09-24T08:30:05.922Z,45
2017-09-24T08:30:51.353Z,45
2017-09-24T08:32:05.654Z,40
2017-09-24T08:33:05.353Z,40
2017-09-24T08:34:05.695Z,35
2017-09-24T08:36:05.741Z,35
2017-09-24T08:36:51.185Z,35
2017-09-24T08:38:06.103Z,35
2017-09-24T08:38:50.897Z,40
2017-09-24T08:39:51.235Z,40
2017-09-24T08:41:51.285Z,50
2017-09-24T08:42:51.348Z,55
2017-09-24T08:43:51.014Z,55
2017-09-24T08:44:51.362Z,50
2017-09-24T08:46:06.289Z,50
2017-09-24T08:48:06.337Z,55
2017-09-24T08:49:06.034Z,55
2017-09-24T08:49:51.472Z,60
2017-09-24T08:50:51.806Z,60
2017-09-24T08:51:51.839Z,50
2017-09-24T08:52:51.857Z,50
2017-09-24T08:53:51.563Z,50
2017-09-24T08:54:51.589Z,50
2017-09-24T08:55:51.606Z,50
2017-09-24T08:56:51.625Z,45
2017-09-24T08:58:06.566Z,45
2017-09-24T08:58:51.354Z,50
2017-09-24T08:59:51.378Z,50
2017-09-24T09:01:06.642Z,45
2017-09-24T09:01:51.741Z,50
2017-09-24T09:02:51.761Z,50
2017-09-24T09:03:52.109Z,50
2017-09-24T09:04:52.131Z,50
2017-09-24T09:05:51.512Z,50
2017-09-24T09:06:51.867Z,50
2017-09-24T09:07:51.878Z,55
2017-09-24T09:09:06.816Z,55
2017-09-24T09:10:06.513Z,55
2017-09-24T09:10:52.264Z,55
2017-09-24T09:11:52.290Z,55
2017-09-24T09:12:52.313Z,50
2017-09-24T09:13:52.338Z,50
2017-09-24T09:14:52.357Z,50
2017-09-24T09:15:52.385Z,50
2017-09-24T09:16:52.404Z,60
2017-09-24T09:17:51.470Z,65
2017-09-24T09:18:52.447Z,65
2017-09-24T09:19:52.514Z,65
2017-09-24T09:21:07.086Z,70
2017-09-24T09:22:07.160Z,70
2017-09-24T09:22:52.542Z,75
2017-09-24T09:24:07.157Z,90
2017-09-24T09:24:52.585Z,95
2017-09-24T09:25:52.296Z,90
2017-09-24T09:26:52.644Z,80
2017-09-24T09:27:52.340Z,70
2017-09-24T09:28:52.039Z,70
2017-09-24T09:29:52.702Z,70
2017-09-24T09:30:52.727Z,70
2017-09-24T09:31:52.754Z,65
2017-09-24T09:33:52.806Z,70
2017-09-24T09:36:07.130Z,70
2017-09-24T09:37:07.460Z,70
2017-09-24T09:38:07.483Z,65
2017-09-24T09:38:52.596Z,65
2017-09-24T09:39:52.626Z,70
2017-09-24T09:40:52.956Z,65
2017-09-24T09:41:52.670Z,55
2017-09-24T09:42:52.688Z,55
2017-09-24T09:43:52.393Z,55
2017-09-24T09:45:53.080Z,55
2017-09-24T09:46:52.785Z,60
2017-09-24T09:47:52.812Z,65
2017-09-24T09:49:07.741Z,65
2017-09-24T09:49:52.853Z,65
2017-09-24T09:50:53.196Z,70
2017-09-24T09:51:53.216Z,70
2017-09-24T09:53:07.837Z,60
2017-09-24T09:54:07.533Z,60
2017-09-24T09:54:52.973Z,55
2017-09-24T09:55:53.315Z,50
2017-09-24T09:56:52.703Z,50
2017-09-24T09:57:53.037Z,50
2017-09-24T09:59:53.136Z,50
2017-09-24T10:01:52.812Z,55
2017-09-24T10:02:53.152Z,55
2017-09-24T10:03:53.184Z,55
2017-09-24T10:05:22.714Z,60
2017-09-24T10:05:52.910Z,65
2017-09-24T10:06:53.567Z,70
2017-09-24T10:07:52.953Z,70
2017-09-24T10:09:08.206Z,65
2017-09-24T10:09:52.994Z,60
2017-09-24T10:10:53.665Z,55
2017-09-24T10:11:53.683Z,55
2017-09-24T10:12:53.390Z,60
2017-09-24T10:13:53.735Z,65
2017-09-24T10:14:53.432Z,55
2017-09-24T10:15:53.452Z,50
2017-09-24T10:16:53.797Z,50
2017-09-24T10:17:53.824Z,45
2017-09-24T10:18:53.845Z,40
2017-09-24T10:19:53.861Z,40
2017-09-24T10:21:22.755Z,45
2017-09-24T10:21:53.912Z,45
2017-09-24T10:22:53.949Z,45
2017-09-24T10:24:08.234Z,50
2017-09-24T10:25:53.694Z,55
2017-09-24T10:26:53.398Z,55
2017-09-24T10:27:53.737Z,55
2017-09-24T10:28:53.440Z,55
2017-09-24T10:29:54.105Z,55
2017-09-24T10:30:54.123Z,55
2017-09-24T10:31:53.508Z,60
2017-09-24T10:32:54.188Z,55
2017-09-24T10:33:54.194Z,50
2017-09-24T10:35:08.816Z,50
2017-09-24T10:36:53.948Z,50
2017-09-24T10:38:07.922Z,50
2017-09-24T10:38:54.319Z,50
2017-09-24T10:40:54.354Z,55
2017-09-24T10:41:53.427Z,55
2017-09-24T10:43:08.999Z,55
2017-09-24T10:43:54.426Z,50
2017-09-24T10:44:54.497Z,45
2017-09-24T10:45:54.483Z,50
2017-09-24T10:46:54.496Z,50
2017-09-24T10:47:54.206Z,50
2017-09-24T10:48:53.905Z,50
2017-09-24T10:49:54.246Z,40
2017-09-24T10:50:54.275Z,40
2017-09-24T10:51:54.366Z,40
2017-09-24T10:52:54.642Z,40
2017-09-24T10:54:54.683Z,40
2017-09-24T10:56:09.297Z,45
2017-09-24T10:56:54.090Z,40
2017-09-24T10:57:54.749Z,45
2017-09-24T10:58:54.814Z,40
2017-09-24T10:59:54.803Z,35
2017-09-24T11:00:54.834Z,35
2017-09-24T11:01:54.843Z,35
2017-09-24T11:02:54.903Z,45
2017-09-24T11:03:54.890Z,50
2017-09-24T11:05:09.195Z,55
2017-09-24T11:05:54.619Z,60
2017-09-24T11:06:54.638Z,60
2017-09-24T11:08:09.256Z,65
2017-09-24T11:08:55.010Z,65
2017-09-24T11:09:55.031Z,65
2017-09-24T11:10:54.733Z,65
2017-09-24T11:11:55.077Z,70
2017-09-24T11:13:54.856Z,85
2017-09-24T11:15:54.852Z,80
2017-09-24T11:16:55.191Z,70
2017-09-24T11:17:55.212Z,65
2017-09-24T11:18:55.240Z,60
2017-09-24T11:19:54.944Z,60
2017-09-24T11:20:55.295Z,60
2017-09-24T11:21:55.313Z,65
2017-09-24T11:22:55.336Z,70
2017-09-24T11:24:09.674Z,65
2017-09-24T11:25:55.396Z,75
2017-09-24T11:26:55.101Z,75
2017-09-24T11:28:10.038Z,70
2017-09-24T11:28:54.832Z,75
2017-09-24T11:29:55.496Z,80
2017-09-24T11:30:55.201Z,80
2017-09-24T11:31:55.226Z,80
2017-09-24T11:32:54.943Z,75
2017-09-24T11:33:55.272Z,65
2017-09-24T11:34:55.289Z,65
2017-09-24T11:35:55.317Z,65
2017-09-24T11:36:55.343Z,55
2017-09-24T11:38:09.639Z,50
2017-09-24T11:40:10.324Z,45
2017-09-24T11:40:55.427Z,45
2017-09-24T11:41:55.137Z,40
2017-09-24T11:43:10.068Z,35
2017-09-24T11:43:55.533Z,35
2017-09-24T11:44:55.521Z,35
2017-09-24T11:45:55.867Z,35
2017-09-24T11:47:09.842Z,45
2017-09-24T11:48:10.186Z,50
2017-09-24T11:48:55.301Z,55
2017-09-24T11:49:55.965Z,50
2017-09-24T11:50:55.660Z,50
2017-09-24T11:51:55.697Z,50
2017-09-24T11:52:56.031Z,50
2017-09-24T11:53:55.414Z,50
2017-09-24T11:55:10.674Z,50
2017-09-24T11:56:10.369Z,45
2017-09-24T11:56:55.805Z,45
2017-09-24T11:58:10.420Z,40
2017-09-24T11:59:10.443Z,45
2017-09-24T12:00:10.784Z,45
2017-09-24T12:01:10.808Z,45
2017-09-24T12:01:56.241Z,45
2017-09-24T12:02:55.947Z,45
2017-09-24T12:03:55.966Z,45
2017-09-24T12:04:55.989Z,45
2017-09-24T12:05:56.022Z,45
2017-09-24T12:07:55.742Z,50
2017-09-24T12:08:56.082Z,50
2017-09-24T12:09:56.111Z,45
2017-09-24T12:11:10.406Z,50
2017-09-24T12:13:10.774Z,50
2017-09-24T12:13:56.200Z,50
2017-09-24T12:15:10.816Z,50
2017-09-24T12:15:56.249Z,50
2017-09-24T12:17:10.862Z,50
2017-09-24T12:17:56.299Z,55
2017-09-24T12:18:56.322Z,55
2017-09-24T12:19:56.340Z,60
2017-09-24T12:20:56.054Z,60
2017-09-24T12:22:10.976Z,60
2017-09-24T12:22:56.417Z,55
2017-09-24T12:25:11.375Z,65
2017-09-24T12:25:56.162Z,70
2017-09-24T12:26:56.823Z,75
2017-09-24T12:27:56.208Z,80
2017-09-24T12:29:56.580Z,80
2017-09-24T12:30:56.598Z,75
2017-09-24T12:32:56.646Z,75
2017-09-24T12:33:56.350Z,80
2017-09-24T12:34:56.689Z,80
2017-09-24T12:35:56.711Z,80
2017-09-24T12:36:57.062Z,80
2017-09-24T12:37:57.085Z,75
2017-09-24T12:38:57.108Z,75
2017-09-24T12:39:56.489Z,70
2017-09-24T12:41:56.860Z,55
2017-09-24T12:43:11.470Z,50
2017-09-24T12:44:11.497Z,50
2017-09-24T12:44:57.242Z,50
2017-09-24T12:45:57.274Z,50
2017-09-24T12:46:56.976Z,50
2017-09-24T12:47:56.997Z,50
2017-09-24T12:48:56.383Z,50
2017-09-24T12:49:57.364Z,50
2017-09-24T12:50:57.391Z,50
2017-09-24T12:51:56.457Z,50
2017-09-24T12:52:57.434Z,50
2017-09-24T12:53:56.816Z,50
2017-09-24T12:54:56.842Z,45
2017-09-24T12:55:56.863Z,40
2017-09-24T12:56:57.530Z,40
2017-09-24T12:57:57.553Z,40
2017-09-24T12:59:11.853Z,45
2017-09-24T12:59:57.282Z,45
2017-09-24T13:00:57.617Z,40
2017-09-24T13:02:12.238Z,40
2017-09-24T13:02:57.351Z,45
2017-09-24T13:03:57.061Z,45
2017-09-24T13:04:57.394Z,50
2017-09-24T13:05:57.423Z,50
2017-09-24T13:06:56.807Z,45
2017-09-24T13:07:57.793Z,40
2017-09-24T13:08:57.813Z,40
2017-09-24T13:09:57.197Z,35
2017-09-24T13:10:57.219Z,35
2017-09-24T13:11:57.555Z,30
2017-09-24T13:12:57.919Z,30
2017-09-24T13:15:57.973Z,20
2017-09-24T13:16:58.000Z,20
2017-09-24T13:18:12.291Z,20
2017-09-24T13:19:12.636Z,20
2017-09-24T13:19:58.067Z,20
2017-09-24T13:20:57.771Z,20
2017-09-24T13:21:58.113Z,25
2017-09-24T13:22:57.822Z,25
2017-09-24T13:23:58.158Z,25
2017-09-24T13:25:57.887Z,25
2017-09-24T13:26:58.227Z,25
2017-09-24T13:27:58.251Z,25
2017-09-24T13:29:12.875Z,30
2017-09-24T13:29:58.299Z,30
2017-09-24T13:31:12.277Z,30
2017-09-24T13:31:58.066Z,35
2017-09-24T13:32:58.378Z,35
2017-09-24T13:33:58.067Z,35
2017-09-24T13:34:58.094Z,30
2017-09-24T13:35:58.438Z,25
2017-09-24T13:36:58.458Z,25
2017-09-24T13:37:57.854Z,30
2017-09-24T13:38:57.923Z,35
2017-09-24T13:39:58.535Z,45
2017-09-24T13:40:58.557Z,50
2017-09-24T13:41:57.625Z,50
2017-09-24T13:42:58.290Z,50
2017-09-24T13:43:58.316Z,50
2017-09-24T13:44:58.650Z,50
2017-09-24T13:47:13.291Z,50
2017-09-24T13:49:13.017Z,50
2017-09-24T13:49:58.769Z,50
2017-09-24T13:50:58.471Z,50
2017-09-24T13:51:58.868Z,50
2017-09-24T13:53:13.431Z,55
2017-09-24T13:53:58.867Z,60
2017-09-24T13:54:58.560Z,65
2017-09-24T13:55:58.589Z,70
2017-09-24T13:56:58.930Z,75
2017-09-24T13:57:58.956Z,80
2017-09-24T13:58:58.655Z,85
2017-09-24T13:59:58.363Z,90
2017-09-24T14:01:58.407Z,80
2017-09-24T14:03:13.664Z,80
2017-09-24T14:03:58.781Z,80
2017-09-24T14:04:58.807Z,80
2017-09-24T14:05:58.503Z,85
2017-09-24T14:07:13.436Z,90
2017-09-24T14:07:58.550Z,95
2017-09-24T14:09:58.970Z,110
2017-09-24T14:10:58.620Z,105
2017-09-24T14:11:58.646Z,90
2017-09-24T14:13:59.016Z,100
2017-09-24T14:14:59.040Z,125
2017-09-24T14:15:59.375Z,120
2017-09-24T14:16:58.770Z,120
2017-09-24T14:18:13.700Z,120
2017-09-24T14:19:14.043Z,120
2017-09-24T14:19:59.158Z,120
2017-09-24T14:21:58.888Z,120
2017-09-24T14:22:58.906Z,120
2017-09-24T14:23:59.571Z,120
2017-09-24T14:24:59.591Z,120
2017-09-24T14:25:58.974Z,120
2017-09-24T14:26:59.655Z,125
2017-09-24T14:27:59.663Z,120
2017-09-24T14:28:59.051Z,115
2017-09-24T14:29:59.709Z,115
2017-09-24T14:30:59.410Z,110
2017-09-24T14:31:59.441Z,110
2017-09-24T14:32:59.831Z,110
2017-09-24T14:34:13.807Z,110
2017-09-24T14:34:59.511Z,110
2017-09-24T14:37:13.828Z,115
2017-09-24T14:38:13.858Z,115
2017-09-24T14:39:13.880Z,120
2017-09-24T14:39:59.948Z,120
2017-09-24T14:40:59.336Z,120
2017-09-24T14:42:00.002Z,115
2017-09-24T14:43:00.013Z,115
2017-09-24T14:44:00.041Z,120
2017-09-24T14:44:59.757Z,120
2017-09-24T14:46:00.088Z,115
2017-09-24T14:47:00.111Z,115
2017-09-24T14:47:59.832Z,115
2017-09-24T14:48:59.838Z,115
2017-09-24T14:50:14.774Z,115
2017-09-24T14:51:14.807Z,115
2017-09-24T14:52:00.232Z,115
2017-09-24T14:53:00.259Z,105
2017-09-24T14:55:00.307Z,105
2017-09-24T14:56:14.952Z,95
2017-09-24T14:57:00.044Z,95
2017-09-24T14:58:00.378Z,90
2017-09-24T14:59:00.398Z,100
2017-09-24T14:59:59.786Z,95
2017-09-24T15:01:00.454Z,100
2017-09-24T15:03:00.490Z,105
2017-09-24T15:04:00.519Z,100
2017-09-24T15:07:00.269Z,95
2017-09-24T15:08:00.297Z,110
2017-09-24T15:09:00.636Z,110
2017-09-24T15:10:00.339Z,105
2017-09-24T15:11:14.960Z,90
2017-09-24T15:12:00.719Z,85
2017-09-24T15:13:15.003Z,75
2017-09-24T15:14:00.763Z,70
2017-09-24T15:15:00.513Z,70
2017-09-24T15:16:00.492Z,70
2017-09-24T15:17:00.505Z,65
2017-09-24T15:18:00.535Z,65
2017-09-24T15:19:00.557Z,65
2017-09-24T15:20:00.910Z,65
2017-09-24T15:21:15.516Z,60
2017-09-24T15:22:00.319Z,60
2017-09-24T15:22:59.698Z,60
2017-09-24T15:25:01.021Z,55
2017-09-24T15:26:15.640Z,55
2017-09-24T15:27:01.070Z,55
2017-09-24T15:28:00.456Z,55
2017-09-24T15:29:00.160Z,55
2017-09-24T15:30:00.840Z,50
2017-09-24T15:31:01.161Z,45
2017-09-24T15:32:00.919Z,45
2017-09-24T15:33:00.578Z,45
2017-09-24T15:34:01.236Z,45
2017-09-24T15:35:00.936Z,45
2017-09-24T15:36:00.965Z,45
2017-09-24T15:37:00.669Z,45
2017-09-24T15:38:15.285Z,40
2017-09-24T15:39:15.629Z,45
2017-09-24T15:40:01.064Z,45
2017-09-24T15:41:00.765Z,40
2017-09-24T15:42:01.427Z,40
2017-09-24T15:43:01.166Z,40
2017-09-24T15:44:01.478Z,40
2017-09-24T15:45:01.182Z,35